.
WxDataArchive / Data Records for 2014-06-06
2014-06-05 June 2014 2014-06-07

Data Records for Friday, 06 June 2014

Time	Temp	Chill	HIndex	Humid	Dewpt	 Wind 	HiWind	WindDir	Rain 	Barom
-----	----	-----	------	-----	-----	------	------	-------	-----	-----
00:00	58.0	58.0	58.0	77	50.8	0	0	---	0.00	29.933 
00:05	57.8	57.8	57.8	78	51.0	0	0	---	0.00	29.933 
00:10	57.6	57.6	57.6	78	50.8	0	0	---	0.00	29.933 
00:15	57.3	57.3	57.3	79	50.8	0	0	---	0.00	29.931 
00:20	57.2	57.2	57.2	80	51.1	0	0	---	0.00	29.931 
00:25	57.0	57.0	57.0	80	50.9	0	0	---	0.00	29.931 
00:30	56.9	56.9	56.9	81	51.1	0	0	---	0.00	29.933 
00:35	56.7	56.7	56.7	81	50.9	0	0	---	0.00	29.933 
00:40	56.6	56.6	56.6	81	50.8	0	0	---	0.00	29.933 
00:45	56.6	56.6	56.6	82	51.2	0	0	---	0.00	29.929 
00:50	56.3	56.3	56.3	82	50.9	0	0	---	0.00	29.929 
00:55	56.2	56.2	56.2	82	50.8	0	0	---	0.00	29.929 
01:00	56.0	56.0	56.0	83	50.9	0	0	---	0.00	29.926 
01:05	55.9	55.9	55.9	83	50.8	0	0	---	0.00	29.926 
01:10	55.7	55.7	55.7	83	50.6	0	0	---	0.00	29.926 
01:15	55.6	55.6	55.6	84	50.8	0	0	---	0.00	29.919 
01:20	55.4	55.4	55.4	84	50.6	0	0	---	0.00	29.919 
01:25	55.3	55.3	55.3	84	50.5	0	0	---	0.00	29.919 
01:30	55.3	55.3	55.3	86	51.2	0	1	68	0.00	29.920 
01:35	55.3	55.3	55.3	87	51.5	0	0	---	0.00	29.920 
01:40	55.3	55.3	55.3	87	51.5	0	0	---	0.00	29.920 
01:45	55.3	55.3	55.3	87	51.5	0	0	---	0.00	29.921 
01:50	55.1	55.1	55.1	87	51.3	0	0	---	0.00	29.921 
01:55	54.8	54.8	54.8	87	51.0	0	0	---	0.00	29.921 
02:00	54.7	54.7	54.7	87	50.9	0	0	---	0.00	29.922 
02:05	54.5	54.5	54.5	87	50.7	0	0	---	0.00	29.922 
02:10	54.4	54.4	54.4	87	50.6	0	0	---	0.00	29.922 
02:15	54.2	54.2	54.2	87	50.4	0	0	---	0.00	29.919 
02:20	54.1	54.1	54.1	87	50.3	0	0	---	0.00	29.919 
02:25	53.9	53.9	53.9	87	50.1	0	0	---	0.00	29.919 
02:30	53.8	53.8	53.8	87	50.0	0	0	---	0.00	29.924 
02:35	53.6	53.6	53.6	88	50.1	0	0	---	0.00	29.924 
02:40	53.5	53.5	53.5	88	50.0	0	0	---	0.00	29.924 
02:45	53.5	53.5	53.5	88	50.0	0	0	---	0.00	29.922 
02:50	53.3	53.3	53.3	88	49.8	0	0	---	0.00	29.922 
02:55	53.2	53.2	53.2	88	49.7	0	0	---	0.00	29.922 
03:00	53.1	53.1	53.1	88	49.6	0	0	---	0.00	29.931 
03:05	52.9	52.9	52.9	88	49.4	0	0	---	0.00	29.931 
03:10	52.8	52.8	52.8	89	49.6	0	0	---	0.00	29.931 
03:15	52.8	52.8	52.8	89	49.6	0	0	---	0.00	29.924 
03:20	52.6	52.6	52.6	89	49.4	0	0	---	0.00	29.924 
03:25	52.6	52.6	52.6	89	49.4	0	0	---	0.00	29.924 
03:30	52.5	52.5	52.5	89	49.4	0	0	---	0.00	29.924 
03:35	52.3	52.3	52.3	89	49.2	0	0	---	0.00	29.924 
03:40	52.3	52.3	52.3	90	49.5	0	0	---	0.00	29.924 
03:45	52.2	52.2	52.2	90	49.4	0	0	---	0.00	29.929 
03:50	52.0	52.0	52.0	90	49.2	0	0	---	0.00	29.929 
03:55	52.0	52.0	52.0	90	49.2	0	0	---	0.00	29.929 
04:00	51.9	51.9	51.9	90	49.1	0	0	---	0.00	29.932 
04:05	51.7	51.7	51.7	90	48.9	0	0	---	0.00	29.932 
04:10	51.7	51.7	51.7	91	49.2	0	0	---	0.00	29.932 
04:15	51.6	51.6	51.6	91	49.1	0	0	---	0.00	29.933 
04:20	51.6	51.6	51.6	91	49.1	0	0	---	0.00	29.933 
04:25	51.4	51.4	51.4	91	48.9	0	0	---	0.00	29.933 
04:30	51.4	51.4	51.4	91	48.9	0	0	---	0.00	29.936 
04:35	51.3	51.3	51.3	91	48.8	0	0	---	0.00	29.936 
04:40	51.3	51.3	51.3	91	48.8	0	0	---	0.00	29.936 
04:45	51.3	51.3	51.3	91	48.8	0	0	---	0.00	29.946 
04:50	51.3	51.3	51.3	91	48.8	0	0	---	0.00	29.946 
04:55	51.1	51.1	51.1	91	48.6	0	0	---	0.00	29.946 
05:00	51.1	51.1	51.1	92	48.9	0	0	---	0.00	29.947 
05:05	51.0	51.0	51.0	92	48.8	0	0	---	0.00	29.947 
05:10	51.0	51.0	51.0	92	48.8	0	0	---	0.00	29.947 
05:15	51.0	51.0	51.0	92	48.8	0	0	---	0.00	29.951 
05:20	50.8	50.8	50.8	92	48.6	0	0	---	0.00	29.951 
05:25	50.8	50.8	50.8	92	48.6	0	0	---	0.00	29.951 
05:30	50.8	50.8	50.8	92	48.6	0	0	---	0.00	29.952 
05:35	50.8	50.8	50.8	92	48.6	0	0	---	0.00	29.952 
05:40	51.0	51.0	51.0	92	48.8	0	0	---	0.00	29.952 
05:45	51.0	51.0	51.0	92	48.8	0	1	68	0.00	29.963 
05:50	51.0	51.0	51.0	92	48.8	0	0	---	0.00	29.963 
05:55	51.1	51.1	51.1	92	48.9	0	0	---	0.00	29.963 
06:00	51.1	51.1	51.1	92	48.9	0	0	---	0.00	29.967 
06:05	51.1	51.1	51.1	93	49.1	0	0	---	0.00	29.967 
06:10	51.3	51.3	51.3	93	49.3	0	0	---	0.00	29.967 
06:15	51.3	51.3	51.3	93	49.3	0	0	---	0.00	29.968 
06:20	51.3	51.3	51.3	93	49.3	0	0	---	0.00	29.968 
06:25	51.3	51.3	51.3	93	49.3	0	0	---	0.00	29.968 
06:30	51.4	51.4	51.4	93	49.4	0	0	---	0.00	29.972 
06:35	51.4	51.4	51.4	93	49.4	0	0	---	0.00	29.972 
06:40	51.4	51.4	51.4	93	49.4	0	0	---	0.00	29.972 
06:45	51.6	51.6	51.6	93	49.6	0	0	---	0.00	29.983 
06:50	51.6	51.6	51.6	93	49.6	0	0	---	0.00	29.983 
06:55	51.6	51.6	51.6	93	49.6	0	0	---	0.00	29.983 
07:00	51.7	51.7	51.7	93	49.7	0	0	---	0.00	29.979 
07:05	52.0	52.0	52.0	94	50.3	0	0	---	0.00	29.979 
07:10	52.3	52.3	52.3	94	50.6	0	0	---	0.00	29.979 
07:15	52.5	52.5	52.5	94	50.8	0	0	---	0.00	29.984 
07:20	52.8	52.8	52.8	94	51.1	0	0	---	0.00	29.984 
07:25	53.1	53.1	53.1	94	51.4	0	0	---	0.00	29.984 
07:30	53.2	53.2	53.2	94	51.5	0	0	---	0.00	29.991 
07:35	53.6	53.6	53.6	94	51.9	0	0	---	0.00	29.991 
07:40	54.4	54.4	54.4	94	52.7	0	0	---	0.00	29.991 
07:45	55.0	55.0	55.0	94	53.3	0	0	---	0.00	29.986 
07:50	55.4	55.4	55.4	93	53.4	0	0	---	0.00	29.986 
07:55	56.0	56.0	56.0	93	54.0	0	0	---	0.00	29.986 
08:00	57.0	57.0	57.0	93	55.0	0	0	---	0.00	29.986 
08:05	58.0	58.0	58.0	91	55.4	0	0	---	0.00	29.986 
08:10	58.7	58.7	58.7	89	55.5	0	0	---	0.00	29.986 
08:15	59.9	59.9	59.9	85	55.4	0	0	---	0.00	29.988 
08:20	61.3	61.3	61.3	77	54.0	0	0	---	0.00	29.988 
08:25	62.7	62.7	62.7	76	55.0	0	0	---	0.00	29.988 
08:30	63.7	63.7	63.7	72	54.5	0	0	---	0.00	29.984 
08:35	63.9	63.9	63.9	71	54.3	0	0	---	0.00	29.984 
08:40	64.3	64.3	64.3	69	53.9	0	0	---	0.00	29.984 
08:45	64.5	64.5	64.5	68	53.7	0	0	---	0.00	29.990 
08:50	65.0	65.0	65.0	67	53.8	0	0	---	0.00	29.990 
08:55	65.5	65.5	65.5	67	54.2	0	0	---	0.00	29.990 
09:00	66.4	66.4	66.4	67	55.1	0	0	---	0.00	29.988 
09:05	67.3	67.3	67.3	62	53.8	0	0	---	0.00	29.988 
09:10	67.8	67.8	67.8	59	52.9	0	0	---	0.00	29.988 
09:15	67.8	67.8	67.8	58	52.5	0	0	---	0.00	29.992 
09:20	68.3	68.3	68.3	61	54.3	0	0	---	0.00	29.992 
09:25	68.9	68.9	68.9	60	54.4	0	0	---	0.00	29.992 
09:30	69.3	69.3	69.3	58	53.9	0	0	---	0.00	29.994 
09:35	69.6	69.6	69.6	58	54.2	0	0	---	0.00	29.994 
09:40	69.9	69.9	69.9	58	54.4	0	0	---	0.00	29.994 
09:45	70.1	70.1	70.1	56	53.7	0	0	---	0.00	29.992 
09:50	70.1	70.1	70.1	54	52.7	0	0	---	0.00	29.992 
09:55	70.3	70.3	70.3	53	52.3	0	0	---	0.00	29.992 
10:00	70.4	70.4	70.4	52	51.9	0	0	---	0.00	29.991 
10:05	70.6	70.6	70.6	53	52.6	0	0	---	0.00	29.991 
10:10	70.8	70.8	70.8	50	51.2	0	0	---	0.00	29.991 
10:15	71.1	71.1	71.1	50	51.5	0	0	---	0.00	29.994 
10:20	71.6	71.6	71.6	49	51.4	0	0	---	0.00	29.994 
10:25	71.8	71.8	71.8	46	49.9	0	0	---	0.00	29.994 
10:30	72.0	72.0	72.0	50	52.3	0	0	---	0.00	29.991 
10:35	72.1	72.1	72.1	51	53.0	0	0	---	0.00	29.991 
10:40	72.5	72.5	72.5	51	53.3	0	0	---	0.00	29.991 
10:45	73.2	73.2	73.2	48	52.3	0	0	---	0.00	29.982 
10:50	73.9	73.9	73.9	48	53.0	0	0	---	0.00	29.982 
10:55	74.0	74.0	74.0	46	51.9	0	0	---	0.00	29.982 
11:00	74.0	74.0	74.0	46	51.9	0	0	---	0.00	29.985 
11:05	73.9	73.9	73.9	41	48.7	0	0	---	0.00	29.985 
11:10	74.4	74.4	74.4	45	51.7	0	0	---	0.00	29.985 
11:15	74.4	74.4	74.4	43	50.4	0	0	---	0.00	29.982 
11:20	74.6	74.6	74.6	39	48.0	0	0	---	0.00	29.982 
11:25	74.9	74.9	74.9	37	46.9	0	0	---	0.00	29.982 
11:30	75.1	75.1	77.3	35	45.6	0	1	22	0.00	29.983 
11:35	74.7	74.7	74.7	38	47.4	0	1	270	0.00	29.983 
11:40	74.6	74.6	74.6	38	47.3	0	2	292	0.00	29.983 
11:45	74.6	74.6	74.6	39	48.0	0	0	---	0.00	29.986 
11:50	75.1	75.1	77.5	39	48.4	0	0	---	0.00	29.986 
11:55	75.3	75.3	77.4	36	46.5	0	0	---	0.00	29.986 
12:00	75.1	75.1	77.4	38	47.7	0	1	315	0.00	29.986 
12:05	75.4	75.4	77.6	39	48.7	0	0	---	0.00	29.986 
12:10	76.3	76.3	77.8	38	48.8	0	0	---	0.00	29.986 
12:15	76.5	76.5	78.0	40	50.4	0	1	315	0.00	29.982 
12:20	76.3	76.3	77.8	38	48.8	0	0	---	0.00	29.982 
12:25	76.7	76.7	78.0	37	48.4	0	0	---	0.00	29.982 
12:30	76.7	76.7	77.7	32	44.6	0	0	---	0.00	29.980 
12:35	76.7	76.7	77.9	35	47.0	0	0	---	0.00	29.980 
12:40	76.8	76.8	77.9	35	47.1	0	0	---	0.00	29.980 
12:45	77.6	77.6	78.5	40	51.3	0	0	---	0.00	29.975 
12:50	77.7	77.7	78.3	35	47.8	1	5	112	0.00	29.975 
12:55	77.7	77.7	78.4	37	49.3	0	2	112	0.00	29.975 
13:00	77.4	77.4	78.1	35	47.6	0	3	270	0.00	29.978 
13:05	77.2	77.2	78.3	39	50.3	1	2	270	0.00	29.978 
13:10	77.0	77.0	78.1	37	48.7	1	2	270	0.00	29.978 
13:15	77.0	77.0	77.9	34	46.5	1	3	270	0.00	29.979 
13:20	77.2	77.2	77.8	31	44.2	0	2	270	0.00	29.979 
13:25	77.7	77.7	78.2	34	47.1	0	1	270	0.00	29.979 
13:30	78.1	78.1	78.5	35	48.2	0	2	270	0.00	29.977 
13:35	78.1	78.1	78.4	33	46.6	0	2	270	0.00	29.977 
13:40	77.9	77.9	78.4	35	48.0	0	2	270	0.00	29.977 
13:45	77.7	77.7	78.1	32	45.5	1	4	112	0.00	29.979 
13:50	77.7	77.7	78.3	35	47.8	1	4	112	0.00	29.979 
13:55	77.7	77.7	78.3	35	47.8	2	4	112	0.00	29.979 
14:00	77.7	77.7	78.0	30	43.8	1	5	68	0.00	29.973 
14:05	77.6	77.6	78.1	32	45.4	1	3	68	0.00	29.973 
14:10	77.6	77.6	78.0	31	44.5	1	4	90	0.00	29.973 
14:15	77.9	77.9	78.4	36	48.8	1	4	90	0.00	29.971 
14:20	78.3	78.3	78.7	37	49.9	0	2	90	0.00	29.971 
14:25	78.3	78.3	78.8	38	50.6	1	2	90	0.00	29.971 
14:30	78.3	78.3	78.6	35	48.4	0	2	90	0.00	29.973 
14:35	78.5	78.5	78.5	32	46.2	1	2	90	0.00	29.973 
14:40	78.5	78.5	78.6	33	47.0	1	4	68	0.00	29.973 
14:45	78.5	78.5	78.8	37	50.0	0	2	68	0.00	29.968 
14:50	78.6	78.6	78.6	33	47.1	1	3	68	0.00	29.968 
14:55	78.8	78.8	78.8	34	48.0	0	4	68	0.00	29.968 
15:00	79.4	79.4	78.9	31	46.1	0	2	68	0.00	29.967 
15:05	79.8	79.8	79.3	34	48.9	0	2	68	0.00	29.967 
15:10	79.9	79.9	79.3	33	48.2	0	2	68	0.00	29.967 
15:15	79.9	79.9	79.3	32	47.4	0	2	68	0.00	29.964 
15:20	80.1	80.1	79.4	32	47.6	0	3	68	0.00	29.964 
15:25	79.8	79.8	79.0	29	44.7	1	2	68	0.00	29.964 
15:30	79.6	79.6	79.0	31	46.3	0	3	68	0.00	29.966 
15:35	79.4	79.4	79.1	34	48.6	1	3	68	0.00	29.966 
15:40	79.2	79.2	78.9	33	47.6	0	2	68	0.00	29.966 
15:45	79.0	79.0	78.6	30	44.9	1	3	68	0.00	29.966 
15:50	79.4	79.4	79.2	36	50.1	0	1	68	0.00	29.966 
15:55	79.4	79.4	79.0	32	46.9	1	4	68	0.00	29.966 
16:00	79.4	79.4	78.8	29	44.3	1	3	68	0.00	29.965 
16:05	79.8	79.8	79.3	34	48.9	0	2	68	0.00	29.965 
16:10	80.3	80.3	80.1	39	53.1	0	1	68	0.00	29.965 
16:15	80.1	80.1	79.3	31	46.7	1	2	68	0.00	29.962 
16:20	79.8	79.8	79.0	29	44.7	1	2	68	0.00	29.962 
16:25	79.6	79.6	79.0	31	46.3	0	2	68	0.00	29.962 
16:30	79.9	79.9	79.3	33	48.2	1	3	68	0.00	29.958 
16:35	80.3	80.3	79.3	29	45.1	0	3	68	0.00	29.958 
16:40	80.5	80.5	79.6	31	47.1	1	3	68	0.00	29.958 
16:45	80.7	80.7	79.7	31	47.2	0	1	68	0.00	29.949 
16:50	81.1	81.1	79.9	31	47.6	0	1	68	0.00	29.949 
16:55	81.2	81.2	79.7	27	44.0	0	3	22	0.00	29.949 
17:00	81.4	81.4	80.1	31	47.8	0	2	22	0.00	29.946 
17:05	81.1	81.1	79.7	27	43.9	1	2	22	0.00	29.946 
17:10	81.1	81.1	79.7	28	44.9	0	2	22	0.00	29.946 
17:15	81.2	81.2	79.8	28	45.0	0	3	22	0.00	29.945 
17:20	80.9	80.9	79.7	29	45.6	0	2	22	0.00	29.945 
17:25	80.5	80.5	79.6	31	47.1	0	2	22	0.00	29.945 
17:30	80.3	80.3	79.2	27	43.2	1	3	22	0.00	29.941 
17:35	80.7	80.7	79.5	29	45.5	0	2	22	0.00	29.941 
17:40	80.9	80.9	79.6	28	44.7	1	2	22	0.00	29.941 
17:45	81.2	81.2	79.8	28	45.0	0	1	0	0.00	29.946 
17:50	81.4	81.4	79.9	27	44.2	0	1	0	0.00	29.946 
17:55	81.2	81.2	79.8	28	45.0	1	3	0	0.00	29.946 
18:00	80.3	80.3	79.4	30	46.0	1	3	0	0.00	29.947 
18:05	79.8	79.8	79.0	29	44.7	1	3	0	0.00	29.947 
18:10	79.4	79.4	78.9	31	46.1	0	2	0	0.00	29.947 
18:15	79.2	79.2	78.8	31	45.9	0	1	0	0.00	29.950 
18:20	79.0	79.0	78.9	34	48.2	0	1	0	0.00	29.950 
18:25	79.0	79.0	78.8	32	46.6	0	1	0	0.00	29.950 
18:30	78.8	78.8	78.6	31	45.6	1	3	0	0.00	29.954 
18:35	78.8	78.8	78.6	31	45.6	0	2	0	0.00	29.954 
18:40	78.6	78.6	78.4	30	44.6	1	3	0	0.00	29.954 
18:45	78.6	78.6	78.5	31	45.4	0	2	0	0.00	29.947 
18:50	78.6	78.6	78.6	33	47.1	0	1	0	0.00	29.947 
18:55	78.5	78.5	78.6	34	47.8	0	1	0	0.00	29.947 
19:00	78.3	78.3	78.6	35	48.4	0	1	0	0.00	29.939 
19:05	78.1	78.1	78.4	33	46.6	0	2	0	0.00	29.939 
19:10	77.9	77.9	78.1	31	44.8	0	1	0	0.00	29.939 
19:15	77.7	77.7	78.1	32	45.5	0	0	---	0.00	29.938 
19:20	77.7	77.7	78.3	35	47.8	0	0	---	0.00	29.938 
19:25	77.6	77.6	78.3	36	48.5	0	1	0	0.00	29.938 
19:30	77.6	77.6	78.3	36	48.5	0	1	0	0.00	29.946 
19:35	77.6	77.6	78.3	36	48.5	0	1	0	0.00	29.946 
19:40	77.4	77.4	78.1	35	47.6	0	0	---	0.00	29.946 
19:45	77.4	77.4	78.2	36	48.3	0	1	0	0.00	29.945 
19:50	77.4	77.4	78.1	35	47.6	0	0	---	0.00	29.945 
19:55	77.2	77.2	78.1	35	47.4	0	0	---	0.00	29.945 
20:00	77.0	77.0	78.0	35	47.2	0	0	---	0.00	29.948 
20:05	77.0	77.0	78.0	35	47.2	0	1	0	0.00	29.948 
20:10	77.2	77.2	78.1	35	47.4	0	1	0	0.00	29.948 
20:15	77.4	77.4	78.1	35	47.6	0	0	---	0.00	29.945 
20:20	77.2	77.2	78.1	36	48.2	0	0	---	0.00	29.945 
20:25	77.0	77.0	78.1	37	48.7	0	0	---	0.00	29.945 
20:30	76.7	76.7	78.1	39	49.9	0	0	---	0.00	29.946 
20:35	76.3	76.3	77.8	38	48.8	0	0	---	0.00	29.946 
20:40	76.0	76.0	77.8	39	49.2	0	0	---	0.00	29.946 
20:45	75.6	75.6	77.7	40	49.6	0	0	---	0.00	29.955 
20:50	75.3	75.3	77.6	41	50.0	0	0	---	0.00	29.955 
20:55	74.9	74.9	74.9	42	50.2	0	0	---	0.00	29.955 
21:00	74.4	74.4	74.4	43	50.4	0	0	---	0.00	29.954 
21:05	73.9	73.9	73.9	43	50.0	0	0	---	0.00	29.954 
21:10	73.3	73.3	73.3	45	50.7	0	0	---	0.00	29.954 
21:15	72.7	72.7	72.7	46	50.7	0	0	---	0.00	29.953 
21:20	72.3	72.3	72.3	47	50.9	0	0	---	0.00	29.953 
21:25	71.8	71.8	71.8	48	51.0	0	0	---	0.00	29.953 
21:30	71.1	71.1	71.1	50	51.5	0	0	---	0.00	29.956 
21:35	70.6	70.6	70.6	50	51.0	0	0	---	0.00	29.956 
21:40	69.9	69.9	69.9	52	51.5	0	0	---	0.00	29.956 
21:45	69.4	69.4	69.4	54	52.0	0	0	---	0.00	29.958 
21:50	68.9	68.9	68.9	55	52.1	0	0	---	0.00	29.958 
21:55	68.6	68.6	68.6	57	52.7	0	0	---	0.00	29.958 
22:00	68.1	68.1	68.1	58	52.8	0	0	---	0.00	29.967 
22:05	67.8	67.8	67.8	59	52.9	0	0	---	0.00	29.967 
22:10	67.4	67.4	67.4	59	52.6	0	0	---	0.00	29.967 
22:15	67.1	67.1	67.1	60	52.7	0	0	---	0.00	29.966 
22:20	66.8	66.8	66.8	61	52.9	0	0	---	0.00	29.966 
22:25	66.4	66.4	66.4	61	52.5	0	0	---	0.00	29.966 
22:30	66.1	66.1	66.1	62	52.7	0	0	---	0.00	29.970 
22:35	65.8	65.8	65.8	63	52.8	0	0	---	0.00	29.970 
22:40	65.6	65.6	65.6	64	53.1	0	0	---	0.00	29.970 
22:45	65.3	65.3	65.3	65	53.2	0	0	---	0.00	29.970 
22:50	65.0	65.0	65.0	66	53.4	0	0	---	0.00	29.970 
22:55	64.8	64.8	64.8	67	53.6	0	0	---	0.00	29.970 
23:00	64.7	64.7	64.7	68	53.9	0	0	---	0.00	29.972 
23:05	64.3	64.3	64.3	67	53.1	0	0	---	0.00	29.972 
23:10	64.2	64.2	64.2	67	53.0	0	0	---	0.00	29.972 
23:15	64.0	64.0	64.0	68	53.2	0	0	---	0.00	29.973 
23:20	63.7	63.7	63.7	68	52.9	0	0	---	0.00	29.973 
23:25	63.7	63.7	63.7	68	52.9	0	0	---	0.00	29.973 
23:30	63.4	63.4	63.4	67	52.2	0	0	---	0.00	29.977 
23:35	63.2	63.2	63.2	67	52.1	0	0	---	0.00	29.977 
23:40	63.1	63.1	63.1	69	52.8	0	0	---	0.00	29.977 
23:45	62.7	62.7	62.7	69	52.4	0	0	---	0.00	29.975 
23:50	62.4	62.4	62.4	69	52.1	0	0	---	0.00	29.975 
23:55	62.3	62.3	62.3	70	52.4	0	0	---	0.00	29.975 

CoCoRaHS
IN-AL-39
A2 Web Hosting
Creative Commons License
GoDaddy
search engine by freefind advanced

loaded 2018-11-15 17:55:17 • last modified 2010-11-18 10:43:29
Privacy PolicyDisclaimer
• wx.awcolley.com is powered by PmWiki v.2002016 •
• all content (unless otherwise noted) © 2018 A W Colley